sensor_id;sensor_type;location;lat;lon;timestamp;P1;durP1;ratioP1;P2;durP2;ratioP2
69226;SDS011;56334;52.398;7.552;2023-03-14T00:01:27;8.52;;;2.35;;
69226;SDS011;56334;52.398;7.552;2023-03-14T00:03:53;10.77;;;2.55;;
69226;SDS011;56334;52.398;7.552;2023-03-14T00:06:20;12.48;;;2.58;;
69226;SDS011;56334;52.398;7.552;2023-03-14T00:08:46;8.82;;;2.45;;
69226;SDS011;56334;52.398;7.552;2023-03-14T00:11:14;12.55;;;2.70;;
69226;SDS011;56334;52.398;7.552;2023-03-14T00:13:41;7.72;;;2.33;;
69226;SDS011;56334;52.398;7.552;2023-03-14T00:16:08;10.35;;;2.38;;
69226;SDS011;56334;52.398;7.552;2023-03-14T00:18:35;10.95;;;2.47;;
69226;SDS011;56334;52.398;7.552;2023-03-14T00:21:02;9.13;;;2.20;;
69226;SDS011;56334;52.398;7.552;2023-03-14T00:23:29;11.52;;;2.65;;
69226;SDS011;56334;52.398;7.552;2023-03-14T00:25:59;10.88;;;2.45;;
69226;SDS011;56334;52.398;7.552;2023-03-14T00:28:26;8.45;;;2.22;;
69226;SDS011;56334;52.398;7.552;2023-03-14T00:30:52;11.15;;;2.70;;
69226;SDS011;56334;52.398;7.552;2023-03-14T00:33:18;9.40;;;2.58;;
69226;SDS011;56334;52.398;7.552;2023-03-14T00:35:51;9.00;;;2.38;;
69226;SDS011;56334;52.398;7.552;2023-03-14T00:38:18;7.40;;;2.15;;
69226;SDS011;56334;52.398;7.552;2023-03-14T00:40:44;10.95;;;2.53;;
69226;SDS011;56334;52.398;7.552;2023-03-14T00:43:10;9.73;;;2.13;;
69226;SDS011;56334;52.398;7.552;2023-03-14T00:45:36;10.38;;;2.53;;
69226;SDS011;56334;52.398;7.552;2023-03-14T00:48:02;9.82;;;1.90;;
69226;SDS011;56334;52.398;7.552;2023-03-14T00:50:28;8.85;;;2.13;;
69226;SDS011;56334;52.398;7.552;2023-03-14T00:52:54;7.40;;;1.67;;
69226;SDS011;56334;52.398;7.552;2023-03-14T00:55:20;9.25;;;1.88;;
69226;SDS011;56334;52.398;7.552;2023-03-14T00:57:46;10.57;;;2.13;;
69226;SDS011;56334;52.398;7.552;2023-03-14T01:00:12;10.32;;;2.53;;
69226;SDS011;56334;52.398;7.552;2023-03-14T01:02:38;10.75;;;2.55;;
69226;SDS011;56334;52.398;7.552;2023-03-14T01:05:05;12.50;;;2.03;;
69226;SDS011;56334;52.398;7.552;2023-03-14T01:07:32;7.28;;;1.60;;
69226;SDS011;56334;52.398;7.552;2023-03-14T01:09:59;8.95;;;1.75;;
69226;SDS011;56334;52.398;7.552;2023-03-14T01:12:26;8.65;;;2.35;;
69226;SDS011;56334;52.398;7.552;2023-03-14T01:14:52;6.50;;;1.48;;
69226;SDS011;56334;52.398;7.552;2023-03-14T01:17:18;9.93;;;1.90;;
69226;SDS011;56334;52.398;7.552;2023-03-14T01:19:44;11.63;;;2.28;;
69226;SDS011;56334;52.398;7.552;2023-03-14T01:22:10;7.97;;;1.83;;
69226;SDS011;56334;52.398;7.552;2023-03-14T01:24:37;4.93;;;1.20;;
69226;SDS011;56334;52.398;7.552;2023-03-14T01:27:03;13.10;;;1.83;;
69226;SDS011;56334;52.398;7.552;2023-03-14T01:29:29;8.95;;;1.83;;
69226;SDS011;56334;52.398;7.552;2023-03-14T01:31:55;7.95;;;1.90;;
69226;SDS011;56334;52.398;7.552;2023-03-14T01:34:23;10.23;;;1.98;;
69226;SDS011;56334;52.398;7.552;2023-03-14T01:36:49;6.72;;;1.77;;
69226;SDS011;56334;52.398;7.552;2023-03-14T01:39:15;9.23;;;1.92;;
69226;SDS011;56334;52.398;7.552;2023-03-14T01:41:43;7.32;;;1.77;;
69226;SDS011;56334;52.398;7.552;2023-03-14T01:44:10;7.75;;;1.80;;
69226;SDS011;56334;52.398;7.552;2023-03-14T01:46:40;10.50;;;2.15;;
69226;SDS011;56334;52.398;7.552;2023-03-14T01:49:09;7.38;;;1.77;;
69226;SDS011;56334;52.398;7.552;2023-03-14T01:51:41;9.82;;;1.88;;
69226;SDS011;56334;52.398;7.552;2023-03-14T01:54:10;10.27;;;1.92;;
69226;SDS011;56334;52.398;7.552;2023-03-14T01:56:37;8.63;;;1.75;;
69226;SDS011;56334;52.398;7.552;2023-03-14T01:59:04;9.05;;;2.10;;
69226;SDS011;56334;52.398;7.552;2023-03-14T02:01:32;7.88;;;1.63;;
69226;SDS011;56334;52.398;7.552;2023-03-14T02:04:00;9.00;;;2.03;;
69226;SDS011;56334;52.398;7.552;2023-03-14T02:09:15;5.93;;;1.38;;
69226;SDS011;56334;52.398;7.552;2023-03-14T02:11:43;8.23;;;1.90;;
69226;SDS011;56334;52.398;7.552;2023-03-14T02:14:13;7.88;;;2.10;;
69226;SDS011;56334;52.398;7.552;2023-03-14T02:16:39;8.85;;;1.60;;
69226;SDS011;56334;52.398;7.552;2023-03-14T02:19:05;8.15;;;2.75;;
69226;SDS011;56334;52.398;7.552;2023-03-14T02:24:04;9.02;;;2.08;;
69226;SDS011;56334;52.398;7.552;2023-03-14T02:26:36;7.80;;;1.60;;
69226;SDS011;56334;52.398;7.552;2023-03-14T02:29:04;6.82;;;1.38;;
69226;SDS011;56334;52.398;7.552;2023-03-14T02:31:30;11.55;;;1.90;;
69226;SDS011;56334;52.398;7.552;2023-03-14T02:33:56;5.97;;;1.48;;
69226;SDS011;56334;52.398;7.552;2023-03-14T02:36:22;8.18;;;1.77;;
69226;SDS011;56334;52.398;7.552;2023-03-14T02:38:58;11.10;;;1.58;;
69226;SDS011;56334;52.398;7.552;2023-03-14T02:41:28;5.72;;;1.48;;
69226;SDS011;56334;52.398;7.552;2023-03-14T02:43:54;8.90;;;1.50;;
69226;SDS011;56334;52.398;7.552;2023-03-14T02:46:21;6.80;;;1.60;;
69226;SDS011;56334;52.398;7.552;2023-03-14T02:48:55;8.45;;;1.92;;
69226;SDS011;56334;52.398;7.552;2023-03-14T02:51:22;7.70;;;1.90;;
69226;SDS011;56334;52.398;7.552;2023-03-14T02:53:49;8.95;;;1.77;;
69226;SDS011;56334;52.398;7.552;2023-03-14T02:56:15;9.05;;;1.70;;
69226;SDS011;56334;52.398;7.552;2023-03-14T02:58:41;9.60;;;1.90;;
69226;SDS011;56334;52.398;7.552;2023-03-14T03:01:07;7.68;;;1.70;;
69226;SDS011;56334;52.398;7.552;2023-03-14T03:03:33;8.48;;;1.83;;
69226;SDS011;56334;52.398;7.552;2023-03-14T03:05:59;6.55;;;1.50;;
69226;SDS011;56334;52.398;7.552;2023-03-14T03:08:26;9.90;;;2.00;;
69226;SDS011;56334;52.398;7.552;2023-03-14T03:10:52;5.63;;;1.48;;
69226;SDS011;56334;52.398;7.552;2023-03-14T03:13:18;7.53;;;1.65;;
69226;SDS011;56334;52.398;7.552;2023-03-14T03:15:44;7.82;;;1.50;;
69226;SDS011;56334;52.398;7.552;2023-03-14T03:18:11;10.95;;;1.58;;
69226;SDS011;56334;52.398;7.552;2023-03-14T03:20:37;10.50;;;1.90;;
69226;SDS011;56334;52.398;7.552;2023-03-14T03:23:04;11.15;;;1.90;;
69226;SDS011;56334;52.398;7.552;2023-03-14T03:25:30;6.68;;;1.38;;
69226;SDS011;56334;52.398;7.552;2023-03-14T03:27:56;6.55;;;1.58;;
69226;SDS011;56334;52.398;7.552;2023-03-14T03:30:22;10.93;;;1.60;;
69226;SDS011;56334;52.398;7.552;2023-03-14T03:32:49;8.80;;;1.75;;
69226;SDS011;56334;52.398;7.552;2023-03-14T03:35:15;8.75;;;1.60;;
69226;SDS011;56334;52.398;7.552;2023-03-14T03:37:41;8.05;;;1.60;;
69226;SDS011;56334;52.398;7.552;2023-03-14T03:40:07;8.05;;;2.00;;
69226;SDS011;56334;52.398;7.552;2023-03-14T03:42:34;6.93;;;1.63;;
69226;SDS011;56334;52.398;7.552;2023-03-14T03:45:00;7.20;;;1.73;;
69226;SDS011;56334;52.398;7.552;2023-03-14T03:47:26;9.43;;;1.67;;
69226;SDS011;56334;52.398;7.552;2023-03-14T03:49:52;9.38;;;1.70;;
69226;SDS011;56334;52.398;7.552;2023-03-14T03:52:18;7.72;;;2.03;;
69226;SDS011;56334;52.398;7.552;2023-03-14T03:54:45;11.63;;;2.40;;
69226;SDS011;56334;52.398;7.552;2023-03-14T03:57:11;10.20;;;1.52;;
69226;SDS011;56334;52.398;7.552;2023-03-14T03:59:37;10.65;;;1.73;;
69226;SDS011;56334;52.398;7.552;2023-03-14T04:02:05;9.88;;;2.15;;
69226;SDS011;56334;52.398;7.552;2023-03-14T04:04:31;8.55;;;1.75;;
69226;SDS011;56334;52.398;7.552;2023-03-14T04:06:57;8.45;;;1.50;;
69226;SDS011;56334;52.398;7.552;2023-03-14T04:09:23;9.75;;;2.10;;
69226;SDS011;56334;52.398;7.552;2023-03-14T04:11:49;8.95;;;1.65;;
69226;SDS011;56334;52.398;7.552;2023-03-14T04:14:15;7.07;;;1.52;;
69226;SDS011;56334;52.398;7.552;2023-03-14T04:16:41;12.43;;;1.92;;
69226;SDS011;56334;52.398;7.552;2023-03-14T04:19:07;9.50;;;2.30;;
69226;SDS011;56334;52.398;7.552;2023-03-14T04:21:33;8.80;;;1.65;;
69226;SDS011;56334;52.398;7.552;2023-03-14T04:23:59;8.27;;;1.92;;
69226;SDS011;56334;52.398;7.552;2023-03-14T04:26:26;11.48;;;1.80;;
69226;SDS011;56334;52.398;7.552;2023-03-14T04:28:52;8.43;;;1.50;;
69226;SDS011;56334;52.398;7.552;2023-03-14T04:31:19;9.02;;;1.90;;
69226;SDS011;56334;52.398;7.552;2023-03-14T04:33:45;9.75;;;2.03;;
69226;SDS011;56334;52.398;7.552;2023-03-14T04:36:12;9.57;;;1.73;;
69226;SDS011;56334;52.398;7.552;2023-03-14T04:38:38;11.25;;;2.25;;
69226;SDS011;56334;52.398;7.552;2023-03-14T04:41:04;7.10;;;1.80;;
69226;SDS011;56334;52.398;7.552;2023-03-14T04:43:30;9.55;;;1.92;;
69226;SDS011;56334;52.398;7.552;2023-03-14T04:45:57;11.35;;;2.00;;
69226;SDS011;56334;52.398;7.552;2023-03-14T04:48:23;7.57;;;1.83;;
69226;SDS011;56334;52.398;7.552;2023-03-14T04:50:50;9.60;;;1.60;;
69226;SDS011;56334;52.398;7.552;2023-03-14T04:53:16;8.77;;;1.70;;
69226;SDS011;56334;52.398;7.552;2023-03-14T04:55:53;6.82;;;1.40;;
69226;SDS011;56334;52.398;7.552;2023-03-14T04:58:19;9.38;;;1.95;;
69226;SDS011;56334;52.398;7.552;2023-03-14T05:00:46;9.48;;;2.13;;
69226;SDS011;56334;52.398;7.552;2023-03-14T05:03:14;7.57;;;1.45;;
69226;SDS011;56334;52.398;7.552;2023-03-14T05:05:40;7.97;;;1.70;;
69226;SDS011;56334;52.398;7.552;2023-03-14T05:08:06;8.52;;;1.63;;
69226;SDS011;56334;52.398;7.552;2023-03-14T05:10:33;5.72;;;1.40;;
69226;SDS011;56334;52.398;7.552;2023-03-14T05:12:59;7.05;;;1.38;;
69226;SDS011;56334;52.398;7.552;2023-03-14T05:15:25;8.00;;;2.00;;
69226;SDS011;56334;52.398;7.552;2023-03-14T05:17:51;9.77;;;1.90;;
69226;SDS011;56334;52.398;7.552;2023-03-14T05:20:17;12.20;;;1.80;;
69226;SDS011;56334;52.398;7.552;2023-03-14T05:22:45;10.30;;;1.77;;
69226;SDS011;56334;52.398;7.552;2023-03-14T05:25:11;7.50;;;1.60;;
69226;SDS011;56334;52.398;7.552;2023-03-14T05:27:37;6.63;;;1.40;;
69226;SDS011;56334;52.398;7.552;2023-03-14T05:30:05;10.90;;;1.85;;
69226;SDS011;56334;52.398;7.552;2023-03-14T05:32:31;10.20;;;1.85;;
69226;SDS011;56334;52.398;7.552;2023-03-14T05:34:57;6.40;;;1.50;;
69226;SDS011;56334;52.398;7.552;2023-03-14T05:37:27;8.40;;;1.45;;
69226;SDS011;56334;52.398;7.552;2023-03-14T05:39:53;7.78;;;1.60;;
69226;SDS011;56334;52.398;7.552;2023-03-14T05:42:19;10.52;;;1.70;;
69226;SDS011;56334;52.398;7.552;2023-03-14T05:44:45;8.50;;;1.52;;
69226;SDS011;56334;52.398;7.552;2023-03-14T05:47:11;10.20;;;1.45;;
69226;SDS011;56334;52.398;7.552;2023-03-14T05:49:37;8.63;;;1.67;;
69226;SDS011;56334;52.398;7.552;2023-03-14T05:52:03;14.13;;;2.22;;
69226;SDS011;56334;52.398;7.552;2023-03-14T05:54:30;7.32;;;1.50;;
69226;SDS011;56334;52.398;7.552;2023-03-14T05:56:56;10.68;;;1.83;;
69226;SDS011;56334;52.398;7.552;2023-03-14T05:59:22;8.55;;;1.98;;
69226;SDS011;56334;52.398;7.552;2023-03-14T06:01:48;7.50;;;1.30;;
69226;SDS011;56334;52.398;7.552;2023-03-14T06:04:14;12.48;;;1.80;;
69226;SDS011;56334;52.398;7.552;2023-03-14T06:06:40;7.70;;;1.58;;
69226;SDS011;56334;52.398;7.552;2023-03-14T06:09:06;10.02;;;1.70;;
69226;SDS011;56334;52.398;7.552;2023-03-14T06:11:32;5.28;;;1.35;;
69226;SDS011;56334;52.398;7.552;2023-03-14T06:13:58;10.45;;;1.67;;
69226;SDS011;56334;52.398;7.552;2023-03-14T06:16:24;12.18;;;1.63;;
69226;SDS011;56334;52.398;7.552;2023-03-14T06:18:50;5.45;;;1.38;;
69226;SDS011;56334;52.398;7.552;2023-03-14T06:21:17;9.80;;;1.90;;
69226;SDS011;56334;52.398;7.552;2023-03-14T06:26:10;5.90;;;1.02;;
69226;SDS011;56334;52.398;7.552;2023-03-14T06:28:39;9.05;;;1.70;;
69226;SDS011;56334;52.398;7.552;2023-03-14T06:31:05;11.38;;;1.83;;
69226;SDS011;56334;52.398;7.552;2023-03-14T06:33:31;12.30;;;1.50;;
69226;SDS011;56334;52.398;7.552;2023-03-14T06:35:57;6.07;;;1.30;;
69226;SDS011;56334;52.398;7.552;2023-03-14T06:38:23;4.88;;;1.08;;
69226;SDS011;56334;52.398;7.552;2023-03-14T06:40:49;7.30;;;1.25;;
69226;SDS011;56334;52.398;7.552;2023-03-14T06:43:15;5.47;;;1.20;;
69226;SDS011;56334;52.398;7.552;2023-03-14T06:45:41;4.05;;;1.00;;
69226;SDS011;56334;52.398;7.552;2023-03-14T06:48:07;7.40;;;1.30;;
69226;SDS011;56334;52.398;7.552;2023-03-14T06:50:33;11.07;;;1.48;;
69226;SDS011;56334;52.398;7.552;2023-03-14T06:52:59;6.70;;;1.38;;
69226;SDS011;56334;52.398;7.552;2023-03-14T06:55:25;5.72;;;1.30;;
69226;SDS011;56334;52.398;7.552;2023-03-14T06:57:52;5.18;;;1.10;;
69226;SDS011;56334;52.398;7.552;2023-03-14T07:00:18;6.40;;;1.00;;
69226;SDS011;56334;52.398;7.552;2023-03-14T07:02:44;9.30;;;1.10;;
69226;SDS011;56334;52.398;7.552;2023-03-14T07:05:10;15.77;;;1.60;;
69226;SDS011;56334;52.398;7.552;2023-03-14T07:07:36;5.20;;;1.15;;
69226;SDS011;56334;52.398;7.552;2023-03-14T07:10:02;6.07;;;1.40;;
69226;SDS011;56334;52.398;7.552;2023-03-14T07:12:28;6.05;;;0.95;;
69226;SDS011;56334;52.398;7.552;2023-03-14T07:14:54;6.32;;;1.20;;
69226;SDS011;56334;52.398;7.552;2023-03-14T07:17:20;5.38;;;0.95;;
69226;SDS011;56334;52.398;7.552;2023-03-14T07:19:46;6.60;;;1.05;;
69226;SDS011;56334;52.398;7.552;2023-03-14T07:22:12;6.53;;;1.25;;
69226;SDS011;56334;52.398;7.552;2023-03-14T07:24:38;4.32;;;1.15;;
69226;SDS011;56334;52.398;7.552;2023-03-14T07:27:04;5.60;;;1.00;;
69226;SDS011;56334;52.398;7.552;2023-03-14T07:29:30;4.60;;;1.20;;
69226;SDS011;56334;52.398;7.552;2023-03-14T07:31:56;5.63;;;1.10;;
69226;SDS011;56334;52.398;7.552;2023-03-14T07:34:23;5.40;;;1.15;;
69226;SDS011;56334;52.398;7.552;2023-03-14T07:36:49;6.95;;;1.40;;
69226;SDS011;56334;52.398;7.552;2023-03-14T07:39:15;4.47;;;1.00;;
69226;SDS011;56334;52.398;7.552;2023-03-14T07:41:41;4.57;;;1.08;;
69226;SDS011;56334;52.398;7.552;2023-03-14T07:44:07;4.18;;;1.00;;
69226;SDS011;56334;52.398;7.552;2023-03-14T07:46:33;3.53;;;0.73;;
69226;SDS011;56334;52.398;7.552;2023-03-14T07:48:59;3.75;;;0.95;;
69226;SDS011;56334;52.398;7.552;2023-03-14T07:51:25;4.70;;;1.20;;
69226;SDS011;56334;52.398;7.552;2023-03-14T07:53:51;5.88;;;1.05;;
69226;SDS011;56334;52.398;7.552;2023-03-14T07:56:17;4.75;;;1.08;;
69226;SDS011;56334;52.398;7.552;2023-03-14T07:58:43;3.00;;;0.85;;
69226;SDS011;56334;52.398;7.552;2023-03-14T08:01:09;4.65;;;0.98;;
69226;SDS011;56334;52.398;7.552;2023-03-14T08:03:35;4.60;;;1.10;;
69226;SDS011;56334;52.398;7.552;2023-03-14T08:06:01;5.72;;;1.27;;
69226;SDS011;56334;52.398;7.552;2023-03-14T08:08:28;4.82;;;1.10;;
69226;SDS011;56334;52.398;7.552;2023-03-14T08:10:54;4.28;;;1.17;;
69226;SDS011;56334;52.398;7.552;2023-03-14T08:13:20;4.70;;;1.10;;
69226;SDS011;56334;52.398;7.552;2023-03-14T08:15:49;5.85;;;1.35;;
69226;SDS011;56334;52.398;7.552;2023-03-14T08:18:16;6.38;;;1.70;;
69226;SDS011;56334;52.398;7.552;2023-03-14T08:20:42;7.43;;;1.50;;
69226;SDS011;56334;52.398;7.552;2023-03-14T08:23:08;5.95;;;1.52;;
69226;SDS011;56334;52.398;7.552;2023-03-14T08:25:34;5.43;;;1.20;;
69226;SDS011;56334;52.398;7.552;2023-03-14T08:28:00;7.72;;;1.50;;
69226;SDS011;56334;52.398;7.552;2023-03-14T08:30:26;7.15;;;1.40;;
69226;SDS011;56334;52.398;7.552;2023-03-14T08:32:52;5.63;;;1.30;;
69226;SDS011;56334;52.398;7.552;2023-03-14T08:35:18;4.22;;;1.17;;
69226;SDS011;56334;52.398;7.552;2023-03-14T08:37:44;5.47;;;1.40;;
69226;SDS011;56334;52.398;7.552;2023-03-14T08:40:11;6.35;;;1.40;;
69226;SDS011;56334;52.398;7.552;2023-03-14T08:42:38;5.40;;;1.50;;
69226;SDS011;56334;52.398;7.552;2023-03-14T08:45:04;6.72;;;1.60;;
69226;SDS011;56334;52.398;7.552;2023-03-14T08:47:30;7.03;;;1.73;;
69226;SDS011;56334;52.398;7.552;2023-03-14T08:49:56;6.75;;;1.50;;
69226;SDS011;56334;52.398;7.552;2023-03-14T08:52:22;5.97;;;1.42;;
69226;SDS011;56334;52.398;7.552;2023-03-14T08:54:49;7.47;;;1.90;;
69226;SDS011;56334;52.398;7.552;2023-03-14T08:57:15;11.38;;;2.22;;
69226;SDS011;56334;52.398;7.552;2023-03-14T08:59:41;10.52;;;1.70;;
69226;SDS011;56334;52.398;7.552;2023-03-14T09:02:09;7.60;;;1.55;;
69226;SDS011;56334;52.398;7.552;2023-03-14T09:04:35;7.10;;;2.45;;
69226;SDS011;56334;52.398;7.552;2023-03-14T09:07:01;5.78;;;1.27;;
69226;SDS011;56334;52.398;7.552;2023-03-14T09:09:28;4.57;;;1.10;;
69226;SDS011;56334;52.398;7.552;2023-03-14T09:11:55;3.35;;;0.82;;
69226;SDS011;56334;52.398;7.552;2023-03-14T09:14:21;3.33;;;0.63;;
69226;SDS011;56334;52.398;7.552;2023-03-14T09:16:47;2.63;;;0.80;;
69226;SDS011;56334;52.398;7.552;2023-03-14T09:19:14;4.30;;;0.77;;
69226;SDS011;56334;52.398;7.552;2023-03-14T09:21:40;2.50;;;0.50;;
69226;SDS011;56334;52.398;7.552;2023-03-14T09:24:06;3.70;;;0.90;;
69226;SDS011;56334;52.398;7.552;2023-03-14T09:26:32;1.42;;;0.45;;
69226;SDS011;56334;52.398;7.552;2023-03-14T09:28:58;1.17;;;0.30;;
69226;SDS011;56334;52.398;7.552;2023-03-14T09:31:25;3.75;;;0.80;;
69226;SDS011;56334;52.398;7.552;2023-03-14T09:33:52;3.65;;;0.82;;
69226;SDS011;56334;52.398;7.552;2023-03-14T09:36:18;3.38;;;0.82;;
69226;SDS011;56334;52.398;7.552;2023-03-14T09:38:44;4.72;;;0.85;;
69226;SDS011;56334;52.398;7.552;2023-03-14T09:41:29;2.63;;;0.80;;
69226;SDS011;56334;52.398;7.552;2023-03-14T09:44:00;3.70;;;0.70;;
69226;SDS011;56334;52.398;7.552;2023-03-14T09:46:28;3.30;;;0.65;;
69226;SDS011;56334;52.398;7.552;2023-03-14T09:48:55;5.00;;;0.95;;
69226;SDS011;56334;52.398;7.552;2023-03-14T09:51:21;3.88;;;0.70;;
69226;SDS011;56334;52.398;7.552;2023-03-14T09:53:48;3.00;;;0.80;;
69226;SDS011;56334;52.398;7.552;2023-03-14T09:56:23;1.08;;;0.30;;
69226;SDS011;56334;52.398;7.552;2023-03-14T09:58:51;3.72;;;0.52;;
69226;SDS011;56334;52.398;7.552;2023-03-14T10:01:20;2.63;;;0.50;;
69226;SDS011;56334;52.398;7.552;2023-03-14T10:03:46;2.28;;;0.55;;
69226;SDS011;56334;52.398;7.552;2023-03-14T10:06:13;1.40;;;0.35;;
69226;SDS011;56334;52.398;7.552;2023-03-14T10:08:40;3.92;;;0.68;;
69226;SDS011;56334;52.398;7.552;2023-03-14T10:11:10;0.30;;;0.20;;
69226;SDS011;56334;52.398;7.552;2023-03-14T10:13:39;1.58;;;0.30;;
69226;SDS011;56334;52.398;7.552;2023-03-14T10:16:12;0.50;;;0.30;;
69226;SDS011;56334;52.398;7.552;2023-03-14T10:18:39;3.03;;;0.35;;
69226;SDS011;56334;52.398;7.552;2023-03-14T10:21:27;3.58;;;0.40;;
69226;SDS011;56334;52.398;7.552;2023-03-14T10:24:06;3.72;;;0.47;;
69226;SDS011;56334;52.398;7.552;2023-03-14T10:26:33;2.00;;;0.50;;
69226;SDS011;56334;52.398;7.552;2023-03-14T10:31:26;0.73;;;0.20;;
69226;SDS011;56334;52.398;7.552;2023-03-14T10:33:59;3.63;;;0.75;;
69226;SDS011;56334;52.398;7.552;2023-03-14T10:36:27;1.85;;;0.65;;
69226;SDS011;56334;52.398;7.552;2023-03-14T10:41:50;2.08;;;0.45;;
69226;SDS011;56334;52.398;7.552;2023-03-14T10:44:19;3.88;;;0.70;;
69226;SDS011;56334;52.398;7.552;2023-03-14T10:46:45;9.73;;;0.90;;
69226;SDS011;56334;52.398;7.552;2023-03-14T10:49:23;1.63;;;0.43;;
69226;SDS011;56334;52.398;7.552;2023-03-14T10:51:51;3.50;;;0.77;;
69226;SDS011;56334;52.398;7.552;2023-03-14T10:54:22;4.72;;;1.02;;
69226;SDS011;56334;52.398;7.552;2023-03-14T10:56:58;6.70;;;0.80;;
69226;SDS011;56334;52.398;7.552;2023-03-14T10:59:24;3.10;;;0.73;;
69226;SDS011;56334;52.398;7.552;2023-03-14T11:01:59;4.15;;;0.70;;
69226;SDS011;56334;52.398;7.552;2023-03-14T11:07:03;6.57;;;1.40;;
69226;SDS011;56334;52.398;7.552;2023-03-14T11:09:55;4.45;;;0.80;;
69226;SDS011;56334;52.398;7.552;2023-03-14T11:15:02;2.28;;;0.63;;
69226;SDS011;56334;52.398;7.552;2023-03-14T11:17:41;5.63;;;1.10;;
69226;SDS011;56334;52.398;7.552;2023-03-14T11:20:14;2.47;;;0.65;;
69226;SDS011;56334;52.398;7.552;2023-03-14T11:22:51;2.53;;;0.63;;
69226;SDS011;56334;52.398;7.552;2023-03-14T11:25:26;8.13;;;1.30;;
69226;SDS011;56334;52.398;7.552;2023-03-14T11:32:59;4.53;;;0.73;;
69226;SDS011;56334;52.398;7.552;2023-03-14T11:35:34;7.38;;;1.20;;
69226;SDS011;56334;52.398;7.552;2023-03-14T11:38:10;8.32;;;1.30;;
69226;SDS011;56334;52.398;7.552;2023-03-14T11:40:37;5.07;;;1.00;;
69226;SDS011;56334;52.398;7.552;2023-03-14T11:43:15;7.93;;;1.65;;
69226;SDS011;56334;52.398;7.552;2023-03-14T11:45:44;4.68;;;1.23;;
69226;SDS011;56334;52.398;7.552;2023-03-14T11:50:39;5.88;;;0.88;;
69226;SDS011;56334;52.398;7.552;2023-03-14T11:53:18;9.23;;;1.35;;
69226;SDS011;56334;52.398;7.552;2023-03-14T11:55:45;11.15;;;2.08;;
69226;SDS011;56334;52.398;7.552;2023-03-14T11:58:16;13.40;;;1.90;;
69226;SDS011;56334;52.398;7.552;2023-03-14T12:00:43;10.90;;;1.48;;
69226;SDS011;56334;52.398;7.552;2023-03-14T12:05:46;9.27;;;1.73;;
69226;SDS011;56334;52.398;7.552;2023-03-14T12:13:39;9.27;;;1.50;;
69226;SDS011;56334;52.398;7.552;2023-03-14T12:18:50;9.00;;;1.35;;
69226;SDS011;56334;52.398;7.552;2023-03-14T12:21:18;17.15;;;1.73;;
69226;SDS011;56334;52.398;7.552;2023-03-14T12:28:37;14.88;;;1.55;;
69226;SDS011;56334;52.398;7.552;2023-03-14T12:33:48;12.35;;;1.73;;
69226;SDS011;56334;52.398;7.552;2023-03-14T12:36:31;7.80;;;0.98;;
69226;SDS011;56334;52.398;7.552;2023-03-14T12:39:10;5.95;;;1.25;;
69226;SDS011;56334;52.398;7.552;2023-03-14T12:41:43;9.98;;;1.63;;
69226;SDS011;56334;52.398;7.552;2023-03-14T12:49:39;10.52;;;1.67;;
69226;SDS011;56334;52.398;7.552;2023-03-14T12:52:12;8.85;;;1.85;;
69226;SDS011;56334;52.398;7.552;2023-03-14T12:59:38;9.68;;;1.70;;
69226;SDS011;56334;52.398;7.552;2023-03-14T13:06:58;8.23;;;1.50;;
69226;SDS011;56334;52.398;7.552;2023-03-14T13:12:07;5.75;;;1.50;;
69226;SDS011;56334;52.398;7.552;2023-03-14T13:14:34;10.57;;;1.50;;
69226;SDS011;56334;52.398;7.552;2023-03-14T13:17:01;7.75;;;1.17;;
69226;SDS011;56334;52.398;7.552;2023-03-14T13:19:28;8.38;;;1.25;;
69226;SDS011;56334;52.398;7.552;2023-03-14T13:22:02;8.23;;;1.02;;
69226;SDS011;56334;52.398;7.552;2023-03-14T13:24:33;5.60;;;0.77;;
69226;SDS011;56334;52.398;7.552;2023-03-14T13:26:59;7.97;;;1.70;;
69226;SDS011;56334;52.398;7.552;2023-03-14T13:29:33;8.35;;;1.42;;
69226;SDS011;56334;52.398;7.552;2023-03-14T13:32:12;9.20;;;1.77;;
69226;SDS011;56334;52.398;7.552;2023-03-14T13:34:39;7.00;;;1.35;;
69226;SDS011;56334;52.398;7.552;2023-03-14T13:37:13;8.02;;;1.33;;
69226;SDS011;56334;52.398;7.552;2023-03-14T13:39:39;8.82;;;1.33;;
69226;SDS011;56334;52.398;7.552;2023-03-14T13:42:10;6.85;;;1.35;;
69226;SDS011;56334;52.398;7.552;2023-03-14T13:44:39;4.40;;;0.88;;
69226;SDS011;56334;52.398;7.552;2023-03-14T13:47:09;6.93;;;1.35;;
69226;SDS011;56334;52.398;7.552;2023-03-14T13:49:36;5.15;;;0.93;;
69226;SDS011;56334;52.398;7.552;2023-03-14T13:52:03;8.65;;;1.50;;
69226;SDS011;56334;52.398;7.552;2023-03-14T13:54:30;5.47;;;1.10;;
69226;SDS011;56334;52.398;7.552;2023-03-14T13:57:01;5.03;;;0.98;;
69226;SDS011;56334;52.398;7.552;2023-03-14T13:59:28;5.45;;;0.80;;
69226;SDS011;56334;52.398;7.552;2023-03-14T14:01:56;8.05;;;1.38;;
69226;SDS011;56334;52.398;7.552;2023-03-14T14:04:24;7.10;;;1.25;;
69226;SDS011;56334;52.398;7.552;2023-03-14T14:06:53;5.55;;;1.00;;
69226;SDS011;56334;52.398;7.552;2023-03-14T14:09:20;8.50;;;1.60;;
69226;SDS011;56334;52.398;7.552;2023-03-14T14:11:50;8.60;;;1.67;;
69226;SDS011;56334;52.398;7.552;2023-03-14T14:14:19;8.65;;;1.52;;
69226;SDS011;56334;52.398;7.552;2023-03-14T14:16:46;7.85;;;1.30;;
69226;SDS011;56334;52.398;7.552;2023-03-14T14:19:13;4.75;;;1.00;;
69226;SDS011;56334;52.398;7.552;2023-03-14T14:21:39;7.10;;;0.98;;
69226;SDS011;56334;52.398;7.552;2023-03-14T14:24:07;7.80;;;1.48;;
69226;SDS011;56334;52.398;7.552;2023-03-14T14:26:34;5.15;;;0.88;;
69226;SDS011;56334;52.398;7.552;2023-03-14T14:29:04;4.13;;;0.77;;
69226;SDS011;56334;52.398;7.552;2023-03-14T14:31:30;2.17;;;0.63;;
69226;SDS011;56334;52.398;7.552;2023-03-14T14:34:00;6.30;;;1.25;;
69226;SDS011;56334;52.398;7.552;2023-03-14T14:36:37;7.68;;;1.05;;
69226;SDS011;56334;52.398;7.552;2023-03-14T14:41:34;4.60;;;0.68;;
69226;SDS011;56334;52.398;7.552;2023-03-14T14:44:01;8.35;;;1.27;;
69226;SDS011;56334;52.398;7.552;2023-03-14T14:46:30;6.55;;;1.20;;
69226;SDS011;56334;52.398;7.552;2023-03-14T14:49:02;8.82;;;2.05;;
69226;SDS011;56334;52.398;7.552;2023-03-14T14:51:33;6.68;;;1.30;;
69226;SDS011;56334;52.398;7.552;2023-03-14T14:54:04;5.35;;;0.93;;
69226;SDS011;56334;52.398;7.552;2023-03-14T14:56:34;5.60;;;1.08;;
69226;SDS011;56334;52.398;7.552;2023-03-14T14:59:01;7.10;;;1.30;;
69226;SDS011;56334;52.398;7.552;2023-03-14T15:03:59;6.68;;;1.05;;
69226;SDS011;56334;52.398;7.552;2023-03-14T15:08:53;5.20;;;0.88;;
69226;SDS011;56334;52.398;7.552;2023-03-14T15:11:20;6.70;;;1.20;;
69226;SDS011;56334;52.398;7.552;2023-03-14T15:13:47;7.18;;;1.20;;
69226;SDS011;56334;52.398;7.552;2023-03-14T15:16:27;6.07;;;0.90;;
69226;SDS011;56334;52.398;7.552;2023-03-14T15:18:54;5.18;;;0.93;;
69226;SDS011;56334;52.398;7.552;2023-03-14T15:23:47;4.00;;;0.57;;
69226;SDS011;56334;52.398;7.552;2023-03-14T15:26:13;7.18;;;0.98;;
69226;SDS011;56334;52.398;7.552;2023-03-14T15:28:40;4.72;;;0.80;;
69226;SDS011;56334;52.398;7.552;2023-03-14T15:31:10;4.05;;;0.73;;
69226;SDS011;56334;52.398;7.552;2023-03-14T15:33:36;5.70;;;1.23;;
69226;SDS011;56334;52.398;7.552;2023-03-14T15:36:13;6.50;;;1.52;;
69226;SDS011;56334;52.398;7.552;2023-03-14T15:38:40;4.47;;;0.90;;
69226;SDS011;56334;52.398;7.552;2023-03-14T15:41:06;5.03;;;0.90;;
69226;SDS011;56334;52.398;7.552;2023-03-14T15:43:32;8.05;;;1.20;;
69226;SDS011;56334;52.398;7.552;2023-03-14T15:45:59;6.18;;;1.10;;
69226;SDS011;56334;52.398;7.552;2023-03-14T15:48:25;5.88;;;1.08;;
69226;SDS011;56334;52.398;7.552;2023-03-14T15:50:51;5.95;;;1.02;;
69226;SDS011;56334;52.398;7.552;2023-03-14T15:53:18;5.22;;;0.90;;
69226;SDS011;56334;52.398;7.552;2023-03-14T15:55:44;5.45;;;1.13;;
69226;SDS011;56334;52.398;7.552;2023-03-14T15:58:15;6.10;;;1.00;;
69226;SDS011;56334;52.398;7.552;2023-03-14T16:00:41;3.25;;;0.60;;